createdAt,value
2019-02-21T00:00:28.685Z,46.70
2019-02-21T00:01:28.682Z,45.10
2019-02-21T00:02:28.668Z,45.70
2019-02-21T00:03:28.651Z,44.20
2019-02-21T00:04:28.735Z,43.00
2019-02-21T00:05:28.632Z,44.30
2019-02-21T00:06:28.617Z,43.00
2019-02-21T00:07:28.607Z,44.70
2019-02-21T00:08:28.687Z,43.60
2019-02-21T00:09:28.605Z,43.80
2019-02-21T00:10:28.582Z,43.70
2019-02-21T00:11:28.573Z,44.90
2019-02-21T00:12:28.558Z,45.40
2019-02-21T00:13:28.544Z,44.60
2019-02-21T00:14:28.535Z,43.60
2019-02-21T00:15:28.521Z,43.50
2019-02-21T00:16:28.507Z,43.00
2019-02-21T00:17:28.499Z,46.00
2019-02-21T00:18:28.493Z,44.10
2019-02-21T00:19:28.498Z,43.20
2019-02-21T00:20:28.480Z,45.80
2019-02-21T00:21:28.453Z,46.00
2019-02-21T00:22:28.447Z,46.50
2019-02-21T00:23:28.441Z,45.60
2019-02-21T00:24:28.442Z,45.90
2019-02-21T00:25:28.448Z,45.30
2019-02-21T00:26:28.491Z,46.40
2019-02-21T00:27:28.392Z,47.50
2019-02-21T00:28:28.394Z,45.60
2019-02-21T00:29:28.386Z,49.40
2019-02-21T00:30:35.280Z,47.20
2019-02-21T00:31:29.348Z,46.50
2019-02-21T00:32:28.333Z,46.20
2019-02-21T00:33:28.359Z,51.30
2019-02-21T00:34:28.327Z,49.50
2019-02-21T00:35:28.462Z,48.70
2019-02-21T00:36:28.293Z,51.30
2019-02-21T00:37:28.308Z,50.20
2019-02-21T00:38:28.268Z,49.00
2019-02-21T00:39:28.260Z,48.30
2019-02-21T00:40:28.268Z,48.90
2019-02-21T00:41:28.246Z,49.10
2019-02-21T00:42:28.229Z,47.50
2019-02-21T00:43:28.223Z,46.60
2019-02-21T00:44:28.207Z,49.50
2019-02-21T00:45:28.211Z,49.20
2019-02-21T00:46:28.200Z,52.90
2019-02-21T00:47:28.172Z,44.80
2019-02-21T00:48:28.161Z,51.00
2019-02-21T00:49:28.158Z,51.80
2019-02-21T00:50:28.146Z,53.00
2019-02-21T00:51:28.142Z,50.70
2019-02-21T00:52:28.116Z,47.40
2019-02-21T00:53:28.105Z,51.60
2019-02-21T00:54:28.121Z,47.00
2019-02-21T00:55:28.084Z,52.40
2019-02-21T00:56:28.078Z,51.80
2019-02-21T00:57:28.068Z,44.80
2019-02-21T00:58:28.057Z,50.80
2019-02-21T00:59:28.044Z,52.00
2019-02-21T01:00:28.049Z,52.70
2019-02-21T01:01:28.034Z,54.30
2019-02-21T01:02:28.024Z,47.90
2019-02-21T01:03:27.999Z,55.00
2019-02-21T01:04:27.991Z,54.50
2019-02-21T01:05:27.976Z,57.20
2019-02-21T01:06:27.980Z,44.60
2019-02-21T01:07:27.966Z,50.70
2019-02-21T01:08:27.952Z,50.00
2019-02-21T01:09:27.987Z,50.30
2019-02-21T01:10:27.922Z,52.40
2019-02-21T01:11:27.928Z,46.80
2019-02-21T01:12:27.907Z,48.90
2019-02-21T01:13:27.911Z,52.40
2019-02-21T01:14:27.882Z,54.40
2019-02-21T01:15:27.869Z,51.10
2019-02-21T01:16:28.009Z,50.40
2019-02-21T01:17:27.848Z,50.80
2019-02-21T01:18:27.860Z,52.50
2019-02-21T01:19:27.841Z,56.20
2019-02-21T01:20:27.837Z,54.70
2019-02-21T01:21:27.831Z,55.70
2019-02-21T01:22:27.798Z,54.40
2019-02-21T01:23:27.856Z,53.40
2019-02-21T01:24:27.812Z,52.30
2019-02-21T01:25:27.761Z,53.30
2019-02-21T01:26:27.768Z,54.80
2019-02-21T01:27:27.759Z,55.00
2019-02-21T01:28:27.748Z,54.10
2019-02-21T01:29:27.728Z,54.60
2019-02-21T01:30:27.704Z,55.70
2019-02-21T01:31:27.719Z,48.80
2019-02-21T01:32:27.683Z,54.90
2019-02-21T01:33:27.674Z,55.50
2019-02-21T01:34:27.667Z,57.80
2019-02-21T01:35:27.662Z,50.90
2019-02-21T01:36:27.663Z,57.70
2019-02-21T01:37:27.628Z,50.70
2019-02-21T01:38:27.632Z,56.00
2019-02-21T01:39:27.616Z,57.00
2019-02-21T01:40:27.599Z,59.10
2019-02-21T01:41:27.599Z,56.00
2019-02-21T01:42:27.582Z,54.00
2019-02-21T01:43:27.562Z,55.20
2019-02-21T01:44:27.557Z,51.90
2019-02-21T01:45:27.565Z,56.40
2019-02-21T01:46:27.575Z,60.20
2019-02-21T01:47:27.543Z,62.40
2019-02-21T01:48:29.562Z,52.40
2019-02-21T01:49:27.504Z,57.00
2019-02-21T01:50:27.494Z,53.30
2019-02-21T01:51:27.499Z,55.60
2019-02-21T01:52:27.516Z,55.10
2019-02-21T01:53:27.456Z,55.40
2019-02-21T01:54:27.478Z,59.00
2019-02-21T01:55:27.434Z,57.20
2019-02-21T01:56:27.425Z,56.70
2019-02-21T01:57:27.428Z,53.40
2019-02-21T01:58:27.413Z,57.40
2019-02-21T01:59:27.437Z,58.20
2019-02-21T02:00:27.416Z,61.90
2019-02-21T02:01:27.378Z,59.60
2019-02-21T02:02:27.372Z,57.50
2019-02-21T02:03:27.350Z,58.00
2019-02-21T02:04:27.340Z,65.00
2019-02-21T02:05:27.340Z,63.20
2019-02-21T02:06:27.365Z,61.40
2019-02-21T02:07:27.316Z,61.50
2019-02-21T02:08:27.302Z,60.60
2019-02-21T02:09:27.307Z,60.50
2019-02-21T02:10:27.290Z,60.70
2019-02-21T02:11:27.267Z,66.20
2019-02-21T02:12:27.327Z,63.40
2019-02-21T02:13:27.282Z,65.20
2019-02-21T02:14:27.240Z,62.90
2019-02-21T02:15:27.224Z,60.90
2019-02-21T02:16:27.212Z,60.40
2019-02-21T02:17:27.217Z,55.70
2019-02-21T02:18:27.488Z,54.60
2019-02-21T02:19:27.186Z,56.30
2019-02-21T02:20:27.174Z,57.50
2019-02-21T02:21:27.158Z,55.40
2019-02-21T02:22:27.151Z,58.00
2019-02-21T02:23:27.147Z,59.20
2019-02-21T02:24:27.124Z,53.30
2019-02-21T02:25:27.117Z,55.50
2019-02-21T02:26:27.099Z,55.00
2019-02-21T02:27:27.111Z,57.60
2019-02-21T02:28:27.076Z,53.10
2019-02-21T02:29:27.067Z,52.70
2019-02-21T02:30:27.096Z,55.70
2019-02-21T02:31:27.042Z,52.60
2019-02-21T02:32:27.124Z,50.40
2019-02-21T02:33:27.050Z,49.60
2019-02-21T02:34:27.116Z,50.40
2019-02-21T02:35:27.008Z,53.70
2019-02-21T02:36:26.989Z,52.60
2019-02-21T02:37:27.001Z,55.00
2019-02-21T02:38:26.966Z,50.60
2019-02-21T02:39:26.995Z,51.90
2019-02-21T02:40:26.969Z,52.40
2019-02-21T02:41:26.940Z,57.50
2019-02-21T02:42:26.961Z,52.70
2019-02-21T02:43:26.940Z,54.10
2019-02-21T02:44:26.903Z,53.60
2019-02-21T02:45:26.897Z,52.80
2019-02-21T02:46:26.886Z,50.20
2019-02-21T02:47:26.876Z,53.30
2019-02-21T02:48:26.864Z,52.20
2019-02-21T02:49:26.863Z,52.00
2019-02-21T02:50:26.857Z,50.40
2019-02-21T02:51:26.828Z,50.60
2019-02-21T02:52:26.828Z,49.40
2019-02-21T02:53:26.816Z,50.50
2019-02-21T02:54:26.800Z,48.90
2019-02-21T02:55:26.791Z,51.30
2019-02-21T02:56:26.786Z,51.90
2019-02-21T02:57:26.784Z,51.70
2019-02-21T02:58:26.762Z,51.10
2019-02-21T02:59:26.751Z,52.10
2019-02-21T03:00:26.745Z,50.20
2019-02-21T03:01:34.856Z,49.40
2019-02-21T03:02:27.744Z,47.60
2019-02-21T03:03:26.715Z,50.30
2019-02-21T03:04:26.748Z,50.80
2019-02-21T03:05:26.703Z,50.20
2019-02-21T03:06:26.670Z,49.50
2019-02-21T03:07:26.682Z,49.50
2019-02-21T03:08:26.654Z,47.00
2019-02-21T03:09:26.744Z,48.10
2019-02-21T03:10:26.626Z,49.70
2019-02-21T03:11:26.609Z,53.00
2019-02-21T03:12:26.639Z,51.00
2019-02-21T03:13:26.615Z,48.00
2019-02-21T03:14:26.592Z,51.60
2019-02-21T03:15:26.584Z,52.40
2019-02-21T03:16:26.602Z,56.00
2019-02-21T03:17:26.567Z,51.80
2019-02-21T03:18:26.821Z,53.20
2019-02-21T03:19:26.561Z,56.10
2019-02-21T03:20:26.538Z,60.00
2019-02-21T03:21:26.506Z,51.70
2019-02-21T03:22:26.510Z,54.60
2019-02-21T03:23:26.548Z,55.00
2019-02-21T03:24:26.481Z,55.90
2019-02-21T03:25:26.470Z,56.40
2019-02-21T03:26:26.446Z,51.00
2019-02-21T03:27:26.447Z,53.30
2019-02-21T03:28:26.445Z,50.60
2019-02-21T03:29:26.418Z,50.20
2019-02-21T03:30:26.426Z,47.30
2019-02-21T03:31:26.411Z,47.20
2019-02-21T03:32:26.385Z,50.10
2019-02-21T03:33:26.404Z,50.30
2019-02-21T03:34:26.385Z,50.60
2019-02-21T03:35:26.390Z,55.00
2019-02-21T03:36:26.387Z,50.50
2019-02-21T03:37:26.363Z,49.80
2019-02-21T03:38:26.357Z,48.30
2019-02-21T03:39:26.314Z,48.30
2019-02-21T03:40:26.311Z,47.90
2019-02-21T03:41:26.308Z,48.60
2019-02-21T03:42:26.310Z,53.50
2019-02-21T03:43:26.306Z,51.30
2019-02-21T03:44:26.303Z,54.70
2019-02-21T03:45:26.244Z,54.00
2019-02-21T03:46:26.240Z,53.90
2019-02-21T03:47:26.270Z,53.80
2019-02-21T03:48:26.244Z,53.80
2019-02-21T03:49:26.200Z,52.80
2019-02-21T03:50:26.216Z,54.10
2019-02-21T03:51:26.279Z,54.40
2019-02-21T03:52:26.173Z,54.60
2019-02-21T03:53:26.182Z,51.30
2019-02-21T03:54:26.188Z,49.70
2019-02-21T03:55:26.137Z,48.00
2019-02-21T03:56:26.148Z,55.00
2019-02-21T03:57:26.113Z,57.60
2019-02-21T03:58:26.221Z,51.00
2019-02-21T03:59:26.091Z,51.00
2019-02-21T04:00:26.082Z,49.00
2019-02-21T04:01:26.086Z,50.30
2019-02-21T04:02:26.060Z,49.70
2019-02-21T04:03:26.060Z,51.40
2019-02-21T04:04:26.040Z,48.50
2019-02-21T04:05:26.249Z,51.60
2019-02-21T04:06:26.054Z,50.00
2019-02-21T04:07:26.014Z,52.80
2019-02-21T04:08:26.022Z,52.90
2019-02-21T04:09:26.012Z,50.90
2019-02-21T04:10:25.969Z,52.60
2019-02-21T04:11:25.996Z,49.80
2019-02-21T04:12:26.034Z,53.00
2019-02-21T04:13:25.936Z,51.40
2019-02-21T04:14:25.939Z,57.40
2019-02-21T04:15:25.923Z,58.20
2019-02-21T04:16:25.928Z,53.10
2019-02-21T04:17:25.907Z,53.00
2019-02-21T04:18:25.912Z,53.40
2019-02-21T04:19:25.904Z,52.50
2019-02-21T04:20:25.870Z,56.70
2019-02-21T04:21:25.855Z,53.10
2019-02-21T04:22:25.875Z,52.70
2019-02-21T04:23:25.856Z,54.30
2019-02-21T04:24:25.829Z,53.70
2019-02-21T04:25:25.820Z,49.60
2019-02-21T04:26:25.827Z,56.70
2019-02-21T04:27:25.794Z,50.60
2019-02-21T04:28:25.782Z,56.30
2019-02-21T04:29:25.781Z,52.90
2019-02-21T04:30:25.790Z,53.20
2019-02-21T04:31:25.752Z,49.80
2019-02-21T04:32:25.746Z,55.00
2019-02-21T04:33:25.850Z,52.60
2019-02-21T04:34:25.724Z,55.90
2019-02-21T04:35:25.701Z,53.50
2019-02-21T04:36:25.714Z,53.20
2019-02-21T04:37:25.679Z,53.20
2019-02-21T04:38:25.693Z,54.90
2019-02-21T04:39:25.662Z,54.90
2019-02-21T04:40:25.724Z,57.30
2019-02-21T04:41:25.646Z,53.30
2019-02-21T04:42:25.629Z,52.30
2019-02-21T04:43:25.627Z,55.00
2019-02-21T04:44:25.633Z,59.00
2019-02-21T04:45:25.587Z,53.90
2019-02-21T04:46:25.623Z,53.00
2019-02-21T04:47:25.590Z,51.30
2019-02-21T04:48:25.604Z,55.10
2019-02-21T04:49:25.548Z,50.10
2019-02-21T04:50:25.564Z,51.00
2019-02-21T04:51:25.538Z,52.60
2019-02-21T04:52:25.565Z,56.20
2019-02-21T04:53:25.507Z,51.70
2019-02-21T04:54:25.501Z,53.50
2019-02-21T04:55:25.494Z,54.20
2019-02-21T04:56:25.474Z,53.80
2019-02-21T04:57:25.478Z,53.30
2019-02-21T04:58:25.477Z,58.20
2019-02-21T04:59:25.430Z,57.70
2019-02-21T05:00:25.459Z,57.10
2019-02-21T05:01:25.426Z,55.20
2019-02-21T05:02:28.900Z,52.80
2019-02-21T05:03:25.466Z,54.90
2019-02-21T05:04:25.390Z,55.70
2019-02-21T05:05:25.406Z,54.60
2019-02-21T05:06:25.371Z,55.00
2019-02-21T05:07:25.378Z,54.30
2019-02-21T05:08:25.333Z,51.00
2019-02-21T05:09:27.279Z,54.40
2019-02-21T05:10:25.321Z,55.30
2019-02-21T05:11:25.345Z,53.70
2019-02-21T05:12:25.294Z,60.30
2019-02-21T05:13:25.311Z,52.90
2019-02-21T05:14:25.287Z,55.80
2019-02-21T05:15:25.321Z,55.30
2019-02-21T05:16:25.286Z,53.20
2019-02-21T05:17:25.241Z,51.60
2019-02-21T05:18:25.245Z,53.50
2019-02-21T05:19:25.233Z,56.20
2019-02-21T05:20:25.223Z,51.30
2019-02-21T05:21:25.216Z,51.40
2019-02-21T05:22:25.203Z,54.90
2019-02-21T05:23:25.176Z,53.60
2019-02-21T05:24:25.195Z,55.90
2019-02-21T05:25:25.159Z,54.30
2019-02-21T05:26:25.137Z,53.40
2019-02-21T05:27:25.130Z,56.80
2019-02-21T05:28:25.119Z,55.50
2019-02-21T05:29:25.191Z,53.10
2019-02-21T05:30:25.133Z,53.70
2019-02-21T05:31:25.098Z,56.90
2019-02-21T05:32:25.094Z,56.70
2019-02-21T05:33:25.063Z,56.50
2019-02-21T05:34:25.060Z,54.90
2019-02-21T05:35:25.050Z,56.50
2019-02-21T05:36:25.034Z,58.50
2019-02-21T05:37:25.030Z,59.90
2019-02-21T05:38:25.014Z,60.70
2019-02-21T05:39:25.016Z,55.40
2019-02-21T05:40:25.007Z,52.50
2019-02-21T05:41:24.996Z,53.40
2019-02-21T05:42:24.980Z,54.60
2019-02-21T05:43:24.972Z,55.10
2019-02-21T05:44:25.041Z,55.20
2019-02-21T05:45:24.931Z,55.90
2019-02-21T05:46:24.938Z,57.90
2019-02-21T05:47:25.016Z,55.10
2019-02-21T05:48:24.918Z,60.70
2019-02-21T05:49:24.887Z,58.60
2019-02-21T05:50:24.875Z,57.50
2019-02-21T05:51:24.868Z,56.80
2019-02-21T05:52:24.871Z,55.80
2019-02-21T05:53:24.857Z,53.90
2019-02-21T05:54:24.855Z,55.20
2019-02-21T05:55:24.849Z,54.00
2019-02-21T05:56:24.903Z,51.60
2019-02-21T05:57:25.024Z,48.70
2019-02-21T05:58:24.788Z,51.40
2019-02-21T05:59:24.843Z,55.40
2019-02-21T06:00:24.843Z,52.90
2019-02-21T06:01:24.773Z,55.00
2019-02-21T06:02:24.767Z,54.50
2019-02-21T06:03:24.744Z,54.80
2019-02-21T06:04:24.747Z,58.60
2019-02-21T06:05:24.719Z,60.50
2019-02-21T06:06:24.719Z,56.30
2019-02-21T06:07:24.695Z,54.20
2019-02-21T06:08:24.681Z,56.00
2019-02-21T06:09:24.669Z,56.00
2019-02-21T06:10:24.662Z,56.20
2019-02-21T06:11:24.654Z,58.00
2019-02-21T06:12:33.194Z,57.00
2019-02-21T06:13:25.704Z,55.00
2019-02-21T06:14:24.637Z,54.40
2019-02-21T06:15:24.622Z,53.20
2019-02-21T06:16:24.592Z,56.10
2019-02-21T06:17:24.593Z,55.50
2019-02-21T06:18:24.573Z,53.30
2019-02-21T06:19:24.565Z,55.50
2019-02-21T06:20:24.583Z,59.70
2019-02-21T06:21:24.537Z,57.10
2019-02-21T06:22:24.533Z,57.80
2019-02-21T06:23:25.107Z,54.80
2019-02-21T06:24:24.519Z,56.90
2019-02-21T06:25:24.514Z,59.40
2019-02-21T06:26:24.620Z,59.70
2019-02-21T06:27:24.480Z,57.40
2019-02-21T06:28:24.554Z,57.80
2019-02-21T06:29:24.697Z,56.40
2019-02-21T06:30:24.556Z,57.80
2019-02-21T06:31:24.455Z,60.60
2019-02-21T06:32:24.445Z,56.50
2019-02-21T06:33:24.422Z,60.30
2019-02-21T06:34:24.520Z,59.20
2019-02-21T06:35:24.462Z,56.30
2019-02-21T06:36:26.163Z,58.80
2019-02-21T06:37:24.377Z,63.80
2019-02-21T06:38:24.351Z,60.40
2019-02-21T06:39:25.233Z,53.80
2019-02-21T06:40:24.393Z,55.90
2019-02-21T06:41:24.328Z,53.80
2019-02-21T06:42:24.310Z,52.60
2019-02-21T06:43:24.295Z,58.80
2019-02-21T06:44:24.293Z,59.60
2019-02-21T06:45:24.290Z,57.30
2019-02-21T06:46:24.273Z,55.50
2019-02-21T06:47:24.365Z,57.80
2019-02-21T06:48:24.255Z,58.00
2019-02-21T06:49:32.149Z,59.00
2019-02-21T06:50:27.067Z,60.90
2019-02-21T06:51:24.250Z,55.80
2019-02-21T06:52:24.193Z,53.00
2019-02-21T06:53:24.194Z,60.10
2019-02-21T06:54:24.195Z,61.20
2019-02-21T06:55:24.170Z,65.10
2019-02-21T06:56:24.185Z,62.40
2019-02-21T06:57:24.139Z,62.30
2019-02-21T06:58:24.134Z,55.00
2019-02-21T06:59:24.125Z,54.20
2019-02-21T07:00:24.114Z,57.40
2019-02-21T07:01:29.058Z,59.80
2019-02-21T07:02:25.085Z,62.70
2019-02-21T07:03:24.085Z,61.00
2019-02-21T07:04:24.064Z,56.50
2019-02-21T07:05:24.066Z,55.30
2019-02-21T07:06:31.429Z,56.00
2019-02-21T07:07:25.033Z,57.70
2019-02-21T07:08:25.209Z,57.50
2019-02-21T07:09:24.012Z,59.00
2019-02-21T07:10:24.009Z,59.00
2019-02-21T07:11:25.392Z,62.50
2019-02-21T07:12:23.990Z,59.00
2019-02-21T07:13:26.918Z,64.80
2019-02-21T07:14:24.032Z,68.40
2019-02-21T07:15:23.954Z,72.20
2019-02-21T07:16:23.945Z,76.20
2019-02-21T07:17:23.927Z,74.30
2019-02-21T07:18:23.912Z,70.10
2019-02-21T07:19:23.932Z,67.00
2019-02-21T07:20:23.895Z,68.80
2019-02-21T07:21:23.889Z,66.60
2019-02-21T07:22:23.890Z,64.00
2019-02-21T07:23:23.872Z,63.10
2019-02-21T07:24:23.851Z,64.50
2019-02-21T07:25:23.859Z,64.10
2019-02-21T07:26:23.838Z,61.20
2019-02-21T07:27:23.885Z,62.00
2019-02-21T07:28:23.812Z,60.40
2019-02-21T07:29:23.834Z,63.00
2019-02-21T07:30:23.798Z,63.40
2019-02-21T07:31:28.778Z,64.90
2019-02-21T07:32:24.827Z,63.40
2019-02-21T07:33:28.315Z,66.10
2019-02-21T07:34:24.752Z,64.40
2019-02-21T07:35:23.791Z,63.80
2019-02-21T07:36:23.725Z,58.90
2019-02-21T07:37:23.746Z,58.00
2019-02-21T07:38:23.725Z,56.80
2019-02-21T07:39:23.748Z,63.80
2019-02-21T07:40:23.675Z,56.80
2019-02-21T07:41:23.679Z,54.80
2019-02-21T07:42:23.680Z,52.00
2019-02-21T07:43:24.909Z,54.80
2019-02-21T07:44:23.644Z,52.60
2019-02-21T07:45:23.641Z,55.90
2019-02-21T07:46:23.663Z,49.60
2019-02-21T07:47:23.603Z,49.10
2019-02-21T07:48:23.597Z,48.90
2019-02-21T07:49:25.675Z,48.90
2019-02-21T07:50:23.594Z,50.30
2019-02-21T07:51:23.601Z,51.00
2019-02-21T07:52:26.034Z,49.10
2019-02-21T07:53:23.550Z,48.60
2019-02-21T07:54:23.528Z,51.50
2019-02-21T07:55:23.543Z,47.60
2019-02-21T07:56:23.524Z,48.50
2019-02-21T07:57:23.515Z,45.50
2019-02-21T07:58:23.655Z,45.60
2019-02-21T07:59:23.475Z,45.80
2019-02-21T08:00:23.479Z,46.30
2019-02-21T08:01:23.499Z,43.80
2019-02-21T08:02:23.450Z,44.90
2019-02-21T08:03:31.912Z,44.10
2019-02-21T08:04:24.482Z,45.60
2019-02-21T08:05:23.776Z,44.40
2019-02-21T08:06:23.400Z,45.50
2019-02-21T08:07:26.259Z,45.30
2019-02-21T08:08:23.372Z,41.90
2019-02-21T08:09:23.364Z,38.90
2019-02-21T08:10:33.031Z,38.90
2019-02-21T08:11:24.354Z,39.20
2019-02-21T08:12:23.460Z,38.40
2019-02-21T08:13:23.347Z,38.30
2019-02-21T08:14:23.313Z,36.90
2019-02-21T08:15:23.392Z,37.00
2019-02-21T08:16:23.299Z,39.40
2019-02-21T08:17:23.336Z,37.50
2019-02-21T08:18:23.273Z,37.60
2019-02-21T08:19:23.324Z,37.20
2019-02-21T08:20:33.476Z,36.20
2019-02-21T08:21:24.342Z,36.40
2019-02-21T08:22:23.231Z,38.20
2019-02-21T08:23:23.215Z,36.30
2019-02-21T08:24:23.245Z,37.50
2019-02-21T08:25:23.246Z,36.50
2019-02-21T08:26:23.188Z,36.50
2019-02-21T08:27:23.225Z,33.80
2019-02-21T08:28:23.262Z,33.20
2019-02-21T08:29:23.216Z,33.40
2019-02-21T08:30:23.165Z,35.10
2019-02-21T08:31:23.224Z,33.40
2019-02-21T08:32:23.115Z,33.90
2019-02-21T08:33:23.111Z,34.50
2019-02-21T08:34:23.093Z,33.60
2019-02-21T08:35:23.092Z,34.00
2019-02-21T08:36:23.089Z,33.20
2019-02-21T08:37:23.067Z,32.50
2019-02-21T08:38:23.065Z,32.00
2019-02-21T08:39:23.055Z,33.20
2019-02-21T08:40:25.007Z,33.90
2019-02-21T08:41:25.668Z,31.70
2019-02-21T08:42:23.018Z,31.90
2019-02-21T08:43:23.014Z,31.10
2019-02-21T08:44:22.988Z,31.70
2019-02-21T08:45:23.006Z,31.30
2019-02-21T08:46:22.971Z,30.70
2019-02-21T08:47:22.979Z,31.30
2019-02-21T08:48:23.125Z,30.20
2019-02-21T08:49:22.948Z,29.60
2019-02-21T08:50:22.923Z,29.30
2019-02-21T08:51:22.916Z,29.10
2019-02-21T08:52:22.915Z,29.30
2019-02-21T08:53:22.911Z,28.10
2019-02-21T08:54:22.936Z,28.60
2019-02-21T08:55:22.874Z,28.60
2019-02-21T08:56:22.860Z,28.70
2019-02-21T08:57:22.852Z,28.90
2019-02-21T08:58:22.915Z,28.00
2019-02-21T08:59:22.845Z,28.80
2019-02-21T09:00:22.841Z,27.30
2019-02-21T09:01:22.819Z,28.00
2019-02-21T09:02:22.826Z,27.10
2019-02-21T09:03:22.817Z,27.80
2019-02-21T09:04:27.258Z,28.50
2019-02-21T09:05:23.768Z,27.80
2019-02-21T09:06:24.680Z,27.50
2019-02-21T09:07:22.738Z,25.90
2019-02-21T09:08:32.974Z,27.70
2019-02-21T09:09:23.737Z,26.90
2019-02-21T09:10:22.723Z,26.20
2019-02-21T09:11:22.718Z,26.00
2019-02-21T09:12:22.688Z,26.50
2019-02-21T09:13:23.890Z,26.00
2019-02-21T09:14:22.692Z,26.50
2019-02-21T09:15:22.652Z,25.90
2019-02-21T09:16:22.650Z,26.40
2019-02-21T09:17:22.674Z,27.70
2019-02-21T09:18:22.619Z,26.10
2019-02-21T09:19:22.611Z,27.10
2019-02-21T09:20:22.610Z,26.60
2019-02-21T09:21:22.615Z,25.60
2019-02-21T09:22:22.607Z,25.30
2019-02-21T09:23:22.580Z,24.90
2019-02-21T09:24:37.756Z,25.10
2019-02-21T09:25:23.547Z,27.50
2019-02-21T09:26:22.531Z,26.70
2019-02-21T09:27:22.567Z,25.90
2019-02-21T09:28:22.637Z,25.80
2019-02-21T09:29:22.536Z,25.40
2019-02-21T09:30:22.489Z,26.70
2019-02-21T09:31:22.544Z,26.00
2019-02-21T09:32:22.465Z,26.80
2019-02-21T09:33:22.451Z,25.80
2019-02-21T09:34:22.480Z,26.20
2019-02-21T09:35:22.445Z,26.80
2019-02-21T09:36:22.418Z,24.90
2019-02-21T09:37:22.474Z,25.90
2019-02-21T09:38:22.403Z,25.70
2019-02-21T09:39:22.420Z,26.60
2019-02-21T09:40:22.391Z,26.70
2019-02-21T09:41:22.385Z,26.20
2019-02-21T09:42:22.367Z,26.00
2019-02-21T09:43:22.367Z,26.20
2019-02-21T09:44:22.347Z,25.50
2019-02-21T09:45:22.348Z,25.50
2019-02-21T09:46:22.318Z,25.40
2019-02-21T09:47:22.326Z,24.60
2019-02-21T09:48:22.295Z,23.90
2019-02-21T09:49:22.283Z,25.20
2019-02-21T09:50:22.293Z,25.70
2019-02-21T09:51:22.265Z,25.70
2019-02-21T09:52:22.261Z,24.40
2019-02-21T09:53:22.240Z,24.60
2019-02-21T09:54:22.229Z,25.00
2019-02-21T09:55:22.231Z,24.10
2019-02-21T09:56:30.031Z,24.50
2019-02-21T09:57:23.191Z,25.00
2019-02-21T09:58:22.183Z,24.30
2019-02-21T09:59:22.171Z,24.70
2019-02-21T10:00:22.444Z,24.00
2019-02-21T10:01:22.157Z,25.90
2019-02-21T10:02:23.147Z,24.90
2019-02-21T10:03:22.122Z,24.30
2019-02-21T10:04:31.856Z,25.10
2019-02-21T10:05:23.117Z,24.50
2019-02-21T10:06:22.095Z,25.90
2019-02-21T10:07:22.134Z,25.20
2019-02-21T10:08:22.153Z,25.60
2019-02-21T10:09:22.062Z,24.90
2019-02-21T10:10:22.083Z,24.80
2019-02-21T10:11:22.035Z,25.90
2019-02-21T10:12:22.033Z,24.60
2019-02-21T10:13:22.018Z,24.70
2019-02-21T10:14:22.009Z,26.00
2019-02-21T10:15:22.008Z,26.90
2019-02-21T10:16:22.027Z,25.60
2019-02-21T10:17:21.994Z,26.00
2019-02-21T10:18:22.003Z,24.90
2019-02-21T10:19:21.948Z,25.10
2019-02-21T10:20:21.950Z,24.70
2019-02-21T10:21:21.934Z,25.10
2019-02-21T10:22:21.926Z,25.90
2019-02-21T10:23:24.239Z,25.90
2019-02-21T10:24:21.897Z,24.80
2019-02-21T10:25:23.122Z,24.70
2019-02-21T10:26:21.877Z,26.00
2019-02-21T10:27:21.878Z,24.50
2019-02-21T10:28:21.856Z,25.40
2019-02-21T10:29:21.871Z,23.50
2019-02-21T10:30:21.833Z,23.80
2019-02-21T10:31:21.823Z,23.10
2019-02-21T10:32:21.811Z,24.00
2019-02-21T10:33:21.819Z,23.20
2019-02-21T10:34:22.025Z,23.20
2019-02-21T10:35:21.788Z,23.40
2019-02-21T10:36:21.761Z,24.10
2019-02-21T10:37:21.759Z,23.80
2019-02-21T10:38:21.740Z,22.60
2019-02-21T10:39:21.730Z,23.30
2019-02-21T10:40:21.755Z,24.00
2019-02-21T10:41:21.716Z,23.80
2019-02-21T10:42:21.695Z,23.60
2019-02-21T10:43:21.688Z,22.60
2019-02-21T10:44:21.680Z,22.80
2019-02-21T10:45:21.702Z,22.90
2019-02-21T10:46:21.665Z,22.90
2019-02-21T10:47:21.642Z,23.10
2019-02-21T10:48:21.641Z,22.50
2019-02-21T10:49:21.645Z,22.90
2019-02-21T10:50:21.709Z,23.50
2019-02-21T10:51:21.606Z,22.00
2019-02-21T10:52:21.600Z,21.80
2019-02-21T10:53:21.586Z,22.10
2019-02-21T10:54:21.568Z,21.90
2019-02-21T10:55:21.571Z,22.20
2019-02-21T10:56:21.559Z,22.00
2019-02-21T10:57:21.610Z,21.00
2019-02-21T10:58:21.530Z,22.30
2019-02-21T10:59:21.537Z,21.90
2019-02-21T11:00:21.519Z,23.50
2019-02-21T11:01:21.503Z,21.40
2019-02-21T11:02:21.498Z,22.40
2019-02-21T11:03:21.479Z,23.30
2019-02-21T11:04:21.464Z,22.50
2019-02-21T11:05:21.461Z,22.60
2019-02-21T11:06:21.448Z,23.50
2019-02-21T11:07:21.430Z,22.50
2019-02-21T11:08:21.473Z,22.10
2019-02-21T11:09:21.415Z,23.20
2019-02-21T11:10:21.439Z,23.10
2019-02-21T11:11:21.389Z,23.40
2019-02-21T11:12:21.388Z,24.30
2019-02-21T11:13:21.384Z,21.40
2019-02-21T11:14:21.386Z,23.50
2019-02-21T11:15:21.343Z,21.90
2019-02-21T11:16:21.352Z,22.40
2019-02-21T11:17:21.320Z,22.30
2019-02-21T11:18:21.341Z,21.60
2019-02-21T11:19:21.308Z,21.30
2019-02-21T11:20:21.326Z,21.50
2019-02-21T11:21:21.285Z,20.80
2019-02-21T11:22:21.263Z,20.10
2019-02-21T11:23:21.254Z,20.00
2019-02-21T11:24:21.258Z,20.60
2019-02-21T11:25:21.248Z,20.50
2019-02-21T11:26:21.247Z,21.20
2019-02-21T11:27:21.235Z,19.70
2019-02-21T11:28:21.204Z,20.10
2019-02-21T11:29:21.191Z,21.30
2019-02-21T11:30:21.183Z,21.20
2019-02-21T11:31:21.188Z,20.40
2019-02-21T11:32:21.206Z,21.00
2019-02-21T11:33:21.243Z,20.40
2019-02-21T11:34:21.139Z,19.40
2019-02-21T11:35:21.128Z,20.50
2019-02-21T11:36:21.130Z,21.00
2019-02-21T11:37:21.136Z,17.90
2019-02-21T11:38:21.095Z,18.00
2019-02-21T11:39:21.085Z,21.00
2019-02-21T11:40:21.090Z,20.80
2019-02-21T11:41:21.076Z,21.30
2019-02-21T11:42:21.053Z,21.00
2019-02-21T11:43:21.044Z,21.30
2019-02-21T11:44:21.027Z,20.80
2019-02-21T11:45:21.026Z,20.90
2019-02-21T11:46:21.009Z,20.10
2019-02-21T11:47:21.002Z,18.30
2019-02-21T11:48:20.996Z,19.70
2019-02-21T11:49:20.987Z,19.20
2019-02-21T11:50:21.040Z,18.20
2019-02-21T11:51:20.961Z,18.00
2019-02-21T11:52:20.946Z,19.50
2019-02-21T11:53:21.083Z,19.30
2019-02-21T11:54:26.976Z,17.90
2019-02-21T11:55:21.918Z,17.30
2019-02-21T11:56:20.972Z,16.20
2019-02-21T11:57:20.896Z,15.90
2019-02-21T11:58:20.881Z,15.20
2019-02-21T11:59:20.880Z,15.30
2019-02-21T12:00:20.884Z,17.10
2019-02-21T12:01:20.988Z,16.00
2019-02-21T12:02:20.883Z,16.00
2019-02-21T12:03:21.399Z,17.00
2019-02-21T12:04:20.827Z,16.30
2019-02-21T12:05:30.458Z,17.80
2019-02-21T12:06:21.832Z,16.40
2019-02-21T12:07:20.793Z,17.20
2019-02-21T12:08:20.796Z,17.50
2019-02-21T12:09:20.832Z,17.20
2019-02-21T12:10:20.759Z,17.50
2019-02-21T12:11:20.765Z,18.00
2019-02-21T12:12:20.738Z,17.30
2019-02-21T12:13:20.732Z,18.00
2019-02-21T12:14:20.724Z,18.40
2019-02-21T12:15:20.766Z,19.40
2019-02-21T12:16:20.753Z,16.90
2019-02-21T12:17:21.006Z,17.10
2019-02-21T12:18:20.690Z,16.70
2019-02-21T12:19:20.698Z,18.00
2019-02-21T12:20:20.664Z,16.80
2019-02-21T12:21:20.704Z,17.30
2019-02-21T12:22:20.677Z,16.60
2019-02-21T12:23:20.685Z,15.90
2019-02-21T12:24:20.629Z,14.70
2019-02-21T12:25:20.669Z,14.20
2019-02-21T12:26:20.630Z,13.60
2019-02-21T12:27:20.644Z,15.50
2019-02-21T12:28:20.643Z,15.90
2019-02-21T12:29:20.550Z,19.00
2019-02-21T12:30:20.709Z,18.40
2019-02-21T12:31:20.537Z,19.60
2019-02-21T12:32:20.543Z,19.60
2019-02-21T12:33:20.513Z,20.10
2019-02-21T12:34:20.538Z,19.10
2019-02-21T12:35:29.141Z,20.00
2019-02-21T12:36:21.536Z,20.80
2019-02-21T12:37:20.481Z,20.30
2019-02-21T12:38:20.452Z,20.80
2019-02-21T12:39:20.473Z,20.80
2019-02-21T12:40:20.470Z,21.10
2019-02-21T12:41:20.421Z,20.40
2019-02-21T12:42:20.471Z,19.60
2019-02-21T12:43:20.398Z,19.40
2019-02-21T12:44:20.398Z,20.20
2019-02-21T12:45:20.405Z,20.70
2019-02-21T12:46:20.411Z,20.70
2019-02-21T12:47:20.670Z,20.20
2019-02-21T12:48:20.393Z,20.20
2019-02-21T12:49:20.404Z,20.20
2019-02-21T12:50:20.370Z,20.00
2019-02-21T12:51:20.471Z,20.00
2019-02-21T12:52:20.447Z,18.70